Time;durP1;ratioP1;P1;durP2;ratioP2;P2;SDS_P1;SDS_P2;PMS_P1;PMS_P2;Temp;Humidity;BMP_temperature;BMP_pressure;BME280_temperature;BME280_humidity;BME280_pressure;Samples;Min_cycle;Max_cycle;Signal;HPM_P1;HPM_P2
2023/06/17 00:00:56;;;;;;;1.58;0.95;;;;;;;16.16;80.74;94099.31;5065099;28;20063;-74
2023/06/17 00:03:22;;;;;;;2.72;1.10;;;;;;;16.23;81.01;94093.19;5086263;28;20032;-74
2023/06/17 00:05:47;;;;;;;3.03;1.00;;;;;;;16.16;81.58;94094.94;5067262;28;20039;-75
2023/06/17 00:08:12;;;;;;;2.63;1.00;;;;;;;15.98;82.37;94092.63;5067973;28;20051;-75
2023/06/17 00:10:38;;;;;;;3.70;1.10;;;;;;;16.08;82.54;94093.19;5070160;28;20039;-75
2023/06/17 00:13:03;;;;;;;1.60;0.98;;;;;;;16.21;81.59;94097.00;5071709;28;20051;-75
2023/06/17 00:15:32;;;;;;;3.03;1.30;;;;;;;16.20;81.50;94096.19;5088420;28;20407;-75
2023/06/17 00:18:00;;;;;;;1.73;0.98;;;;;;;15.86;81.94;94078.31;5069780;28;20438;-74
2023/06/17 00:20:25;;;;;;;1.67;1.00;;;;;;;15.90;81.18;94069.13;5088342;28;20038;-74
2023/06/17 00:22:52;;;;;;;1.80;1.27;;;;;;;16.17;81.49;94090.50;5066785;28;20032;-74
2023/06/17 00:25:18;;;;;;;2.08;1.10;;;;;;;16.09;81.28;94079.09;5088320;28;20051;-74
2023/06/17 00:27:43;;;;;;;2.20;1.30;;;;;;;15.94;81.44;94074.84;5087948;28;20486;-74
2023/06/17 00:30:09;;;;;;;2.20;1.10;;;;;;;16.18;81.89;94084.25;5089541;28;20035;-75
2023/06/17 00:32:35;;;;;;;1.73;1.00;;;;;;;16.21;81.65;94089.13;5088990;28;20028;-74
2023/06/17 00:35:02;;;;;;;1.63;1.10;;;;;;;16.17;81.38;94085.25;5071297;28;20218;-75
2023/06/17 00:37:27;;;;;;;2.00;1.02;;;;;;;16.15;81.65;94087.22;5087935;28;20028;-75
2023/06/17 00:39:53;;;;;;;1.70;0.95;;;;;;;16.00;81.64;94077.53;5070594;28;20486;-75
2023/06/17 00:42:19;;;;;;;2.20;1.10;;;;;;;15.99;81.78;94083.78;5055103;28;20036;-75
2023/06/17 00:44:44;;;;;;;1.90;1.20;;;;;;;15.44;83.44;94074.38;5052855;28;20024;-74
2023/06/17 00:47:11;;;;;;;1.40;1.10;;;;;;;15.75;83.60;94087.41;5087592;28;20035;-74
2023/06/17 00:49:37;;;;;;;2.58;1.15;;;;;;;15.56;83.42;94080.00;5085962;28;20060;-75
2023/06/17 00:52:11;;;;;;;2.00;1.10;;;;;;;15.67;83.58;94079.59;5055618;28;20058;-75
2023/06/17 00:54:38;;;;;;;1.52;1.00;;;;;;;15.53;83.90;94072.50;5070576;28;20028;-75
2023/06/17 00:57:09;;;;;;;2.45;1.20;;;;;;;15.54;84.37;94048.75;5069333;28;20092;-74
2023/06/17 00:59:36;;;;;;;5.00;1.40;;;;;;;15.82;83.22;94069.19;5087347;28;20036;-74
2023/06/17 01:02:01;;;;;;;3.10;1.30;;;;;;;15.85;83.25;94076.69;5069131;28;20051;-74
2023/06/17 01:04:28;;;;;;;1.90;1.10;;;;;;;15.74;83.64;94062.22;5070203;28;20490;-74
2023/06/17 01:07:03;;;;;;;3.05;1.10;;;;;;;15.92;82.52;94082.84;5086029;28;20456;-75
2023/06/17 01:09:29;;;;;;;3.38;1.25;;;;;;;15.68;83.67;94081.25;5083184;28;20055;-74
2023/06/17 01:11:56;;;;;;;2.35;1.15;;;;;;;15.44;83.93;94048.19;5069670;28;20498;-74
2023/06/17 01:14:21;;;;;;;2.95;1.30;;;;;;;15.43;83.42;94051.78;5069712;28;20556;-74
2023/06/17 01:16:50;;;;;;;1.85;1.42;;;;;;;15.71;82.98;94074.84;5088535;28;20028;-74
2023/06/17 01:19:20;;;;;;;2.97;1.42;;;;;;;15.63;82.58;94073.91;5081655;28;20111;-75
2023/06/17 01:21:48;;;;;;;1.52;1.00;;;;;;;15.76;82.93;94065.47;5087770;28;20043;-75
2023/06/17 01:24:30;;;;;;;3.78;1.20;;;;;;;15.69;82.10;94075.03;5088763;28;20498;-74
2023/06/17 01:26:59;;;;;;;2.80;1.10;;;;;;;15.64;81.81;94075.53;5084961;28;20044;-74
2023/06/17 01:29:26;;;;;;;2.65;1.30;;;;;;;16.03;82.82;94073.75;5052192;28;20024;-74
2023/06/17 01:31:56;;;;;;;2.28;1.27;;;;;;;15.96;82.88;94070.22;5072062;28;20032;-74
2023/06/17 01:34:30;;;;;;;2.00;1.25;;;;;;;15.98;82.03;94070.84;5073351;28;20055;-74
2023/06/17 01:36:55;;;;;;;3.33;1.40;;;;;;;15.76;81.87;94068.09;5052991;28;20040;-74
2023/06/17 01:39:21;;;;;;;6.53;1.63;;;;;;;15.96;82.65;94062.34;5071773;28;20406;-74
2023/06/17 01:41:48;;;;;;;1.80;1.30;;;;;;;15.93;81.09;94068.75;5070789;28;20035;-74
2023/06/17 01:44:14;;;;;;;1.95;1.30;;;;;;;15.95;81.12;94072.03;5071120;28;20395;-74
2023/06/17 01:46:39;;;;;;;4.25;1.40;;;;;;;16.14;80.62;94075.94;5085969;28;20188;-74
2023/06/17 01:49:05;;;;;;;2.72;1.40;;;;;;;16.06;81.18;94071.59;5071706;28;20048;-74
2023/06/17 01:51:30;;;;;;;2.70;1.10;;;;;;;15.95;81.21;94066.78;5054824;28;20119;-74
2023/06/17 01:53:55;;;;;;;4.07;1.50;;;;;;;16.03;80.88;94079.81;5054921;28;20097;-74
2023/06/17 01:56:21;;;;;;;3.13;1.38;;;;;;;15.99;80.92;94060.22;5087338;28;20024;-74
2023/06/17 01:58:46;;;;;;;2.80;1.40;;;;;;;16.14;79.87;94068.09;5069682;28;20147;-74
2023/06/17 02:01:12;;;;;;;2.38;1.40;;;;;;;16.08;79.67;94061.75;5071297;28;20529;-74
2023/06/17 02:03:38;;;;;;;3.08;1.50;;;;;;;16.02;80.46;94062.47;5088271;28;20032;-74
2023/06/17 02:06:03;;;;;;;2.70;1.48;;;;;;;15.88;80.62;94059.81;5065049;28;20039;-74
2023/06/17 02:08:29;;;;;;;7.90;1.50;;;;;;;15.85;81.11;94061.81;5071083;28;20032;-74
2023/06/17 02:10:55;;;;;;;4.18;1.45;;;;;;;15.62;82.23;94067.03;5070345;28;20047;-74
2023/06/17 02:13:20;;;;;;;2.08;1.33;;;;;;;15.84;82.07;94059.34;5052886;28;20036;-74
2023/06/17 02:15:45;;;;;;;1.83;1.30;;;;;;;15.88;80.99;94067.66;5086259;28;20077;-74
2023/06/17 02:18:12;;;;;;;3.38;1.40;;;;;;;15.82;81.16;94062.16;5088486;28;20637;-74
2023/06/17 02:20:38;;;;;;;1.75;1.27;;;;;;;15.74;81.86;94064.00;5083090;28;20060;-74
2023/06/17 02:23:03;;;;;;;2.65;1.40;;;;;;;15.64;82.28;94051.97;5068038;28;20043;-74
2023/06/17 02:25:29;;;;;;;1.70;1.30;;;;;;;15.63;82.40;94058.19;5086824;28;20028;-74
2023/06/17 02:27:54;;;;;;;1.92;1.45;;;;;;;15.67;82.51;94060.47;5085998;28;20083;-74
2023/06/17 02:30:19;;;;;;;7.10;1.60;;;;;;;15.78;82.51;94060.06;5049630;28;20419;-74
2023/06/17 02:32:45;;;;;;;2.28;1.50;;;;;;;15.72;82.69;94052.94;5088025;28;20055;-74
2023/06/17 02:35:10;;;;;;;2.35;1.30;;;;;;;15.70;82.63;94053.09;5085043;28;20486;-74
2023/06/17 02:37:37;;;;;;;1.90;1.40;;;;;;;15.82;81.52;94063.94;5086597;28;20533;-75
2023/06/17 02:40:06;;;;;;;2.83;1.35;;;;;;;15.64;82.20;94046.72;5069733;28;20038;-75
2023/06/17 02:42:32;;;;;;;2.95;1.75;;;;;;;15.77;82.06;94063.69;5087126;28;20028;-75
2023/06/17 02:44:57;;;;;;;3.42;1.38;;;;;;;15.63;82.90;94057.38;5069282;28;20036;-74
2023/06/17 02:47:23;;;;;;;3.85;1.77;;;;;;;15.55;83.28;94050.41;5088988;28;20072;-74
2023/06/17 02:49:48;;;;;;;2.95;1.70;;;;;;;15.73;83.43;94052.72;5052990;28;20060;-74
2023/06/17 02:52:13;;;;;;;4.78;1.60;;;;;;;15.67;82.87;94068.31;5083609;28;20024;-74
2023/06/17 02:54:39;;;;;;;5.15;1.92;;;;;;;15.67;82.60;94068.31;5069020;28;20024;-74
2023/06/17 02:57:04;;;;;;;2.65;1.75;;;;;;;15.82;82.39;94070.03;5087094;28;20058;-74
2023/06/17 02:59:33;;;;;;;3.08;1.85;;;;;;;15.90;81.27;94068.31;5084814;28;20032;-75
2023/06/17 03:01:59;;;;;;;2.70;1.73;;;;;;;15.94;81.91;94073.03;5083541;28;20024;-74
2023/06/17 03:04:25;;;;;;;3.47;1.55;;;;;;;15.62;81.94;94053.13;5086379;28;20081;-74
2023/06/17 03:06:53;;;;;;;2.85;1.75;;;;;;;15.78;82.28;94070.53;5083824;28;20032;-74
2023/06/17 03:09:19;;;;;;;3.70;1.60;;;;;;;15.70;82.24;94066.19;5070187;28;20400;-74
2023/06/17 03:11:45;;;;;;;2.38;1.30;;;;;;;15.29;82.46;94063.00;5083465;28;20050;-74
2023/06/17 03:14:10;;;;;;;2.20;1.42;;;;;;;15.45;82.64;94077.81;5048073;28;20028;-74
2023/06/17 03:16:38;;;;;;;3.50;1.70;;;;;;;15.56;82.53;94078.19;5084606;28;20020;-74
2023/06/17 03:19:03;;;;;;;3.13;1.55;;;;;;;15.62;82.51;94081.91;5070277;28;20509;-74
2023/06/17 03:21:30;;;;;;;2.50;1.60;;;;;;;15.37;82.34;94083.91;5082380;28;20029;-74
2023/06/17 03:23:57;;;;;;;2.08;1.48;;;;;;;15.54;81.93;94092.44;5082180;28;20036;-74
2023/06/17 03:26:23;;;;;;;3.33;1.65;;;;;;;15.59;82.46;94084.88;5068163;28;20031;-74
2023/06/17 03:28:48;;;;;;;2.80;1.52;;;;;;;15.84;81.61;94101.25;5085986;28;20028;-74
2023/06/17 03:31:20;;;;;;;2.38;1.50;;;;;;;15.75;81.41;94091.84;5085432;28;20047;-74
2023/06/17 03:33:47;;;;;;;1.90;1.55;;;;;;;15.82;80.56;94085.72;5087054;28;20111;-74
2023/06/17 03:36:13;;;;;;;2.58;1.50;;;;;;;15.63;81.68;94094.84;5083567;28;20271;-74
2023/06/17 03:38:38;;;;;;;2.83;1.55;;;;;;;15.79;82.27;94087.88;5082420;28;20587;-75
2023/06/17 03:41:03;;;;;;;2.67;1.70;;;;;;;15.67;82.71;94094.50;5084048;28;20078;-74
2023/06/17 03:43:29;;;;;;;3.00;1.55;;;;;;;15.59;82.66;94093.56;5084935;28;20483;-75
2023/06/17 03:45:54;;;;;;;3.10;1.48;;;;;;;15.68;81.57;94109.19;5068596;28;20027;-74
2023/06/17 03:48:20;;;;;;;2.17;1.60;;;;;;;15.76;81.74;94109.16;5092819;28;20036;-74
2023/06/17 03:50:46;;;;;;;2.60;1.60;;;;;;;15.73;81.95;94120.81;5090964;28;20052;-75
2023/06/17 03:53:11;;;;;;;3.83;1.40;;;;;;;15.71;81.55;94119.34;5090851;28;20028;-74
2023/06/17 03:55:37;;;;;;;2.38;1.50;;;;;;;15.68;82.19;94117.06;5072409;28;20035;-74
2023/06/17 03:58:02;;;;;;;2.58;1.48;;;;;;;15.59;82.11;94114.50;5088410;28;20036;-74
2023/06/17 04:00:28;;;;;;;2.60;1.65;;;;;;;15.50;82.08;94115.53;5089993;28;20016;-75
2023/06/17 04:02:54;;;;;;;1.63;1.27;;;;;;;15.47;82.83;94126.38;5090452;28;20020;-75
2023/06/17 04:05:20;;;;;;;3.03;1.35;;;;;;;15.47;82.57;94126.38;5072114;28;20548;-74
2023/06/17 04:07:46;;;;;;;3.33;1.60;;;;;;;15.42;83.06;94139.16;5087021;28;20056;-74
2023/06/17 04:10:12;;;;;;;3.60;1.40;;;;;;;15.48;82.11;94127.97;5090578;28;20063;-74
2023/06/17 04:12:38;;;;;;;1.80;1.30;;;;;;;15.26;82.47;94116.50;5086074;28;20490;-74
2023/06/17 04:15:23;;;;;;;2.10;1.40;;;;;;;15.58;82.98;94136.44;5055939;28;20034;-74
2023/06/17 04:17:48;;;;;;;3.60;1.50;;;;;;;15.52;82.82;94137.13;5071901;28;20177;-74
2023/06/17 04:20:14;;;;;;;2.60;1.50;;;;;;;15.42;82.82;94136.53;5072582;28;20040;-74
2023/06/17 04:22:40;;;;;;;2.53;1.52;;;;;;;15.45;82.84;94138.81;5036486;28;20423;-75
2023/06/17 04:25:06;;;;;;;3.50;1.30;;;;;;;15.51;83.19;94137.28;5066175;28;20171;-75
2023/06/17 04:27:32;;;;;;;2.40;1.38;;;;;;;15.20;83.18;94114.59;5080468;28;20044;-75
2023/06/17 04:29:57;;;;;;;2.53;1.25;;;;;;;15.43;83.27;94138.16;5088198;28;20517;-75
2023/06/17 04:32:26;;;;;;;6.43;1.60;;;;;;;15.52;82.81;94142.38;5071345;28;20036;-75
2023/06/17 04:34:52;;;;;;;2.65;1.40;;;;;;;15.44;82.78;94150.28;5069765;28;20531;-75
2023/06/17 04:37:18;;;;;;;2.45;1.30;;;;;;;15.34;83.13;94147.03;5039357;28;20441;-75
2023/06/17 04:39:44;;;;;;;2.95;1.30;;;;;;;15.32;83.24;94147.22;5070068;28;20526;-75
2023/06/17 04:42:09;;;;;;;3.22;1.30;;;;;;;15.41;83.41;94138.34;5061368;28;20040;-74
2023/06/17 04:44:37;;;;;;;6.60;3.67;;;;;;;15.52;83.06;94139.75;5053648;28;20480;-73
2023/06/17 04:47:04;;;;;;;5.70;3.70;;;;;;;15.47;83.58;94142.06;5070042;28;20446;-74
2023/06/17 04:49:30;;;;;;;5.15;2.22;;;;;;;15.52;83.21;94139.75;5065839;28;20124;-74
2023/06/17 04:51:56;;;;;;;3.28;1.80;;;;;;;15.53;82.91;94146.59;5086209;28;20073;-74
2023/06/17 04:54:24;;;;;;;2.65;1.33;;;;;;;15.39;83.22;94134.25;5088201;28;20036;-72
2023/06/17 04:56:51;;;;;;;5.15;1.25;;;;;;;15.55;82.80;94138.59;5082755;28;20051;-71
2023/06/17 04:59:19;;;;;;;5.30;1.73;;;;;;;15.51;82.95;94147.75;5065910;28;20161;-71
2023/06/17 05:01:44;;;;;;;4.50;1.30;;;;;;;15.24;83.73;94144.66;5069842;28;20025;-73
2023/06/17 05:04:10;;;;;;;2.88;1.33;;;;;;;15.36;84.22;94142.47;5088504;28;20075;-73
2023/06/17 05:06:35;;;;;;;6.20;1.50;;;;;;;15.47;84.08;94143.88;5085394;28;20040;-73
2023/06/17 05:09:01;;;;;;;2.15;1.30;;;;;;;15.25;83.79;94137.63;5087077;28;20024;-73
2023/06/17 05:11:26;;;;;;;1.90;1.30;;;;;;;15.48;83.40;94148.91;5069222;28;20086;-73
2023/06/17 05:13:52;;;;;;;4.30;1.40;;;;;;;15.27;83.70;94136.47;5070373;28;20044;-73
2023/06/17 05:16:17;;;;;;;2.70;1.30;;;;;;;15.24;83.97;94130.75;5049847;28;20537;-73
2023/06/17 05:18:42;;;;;;;5.05;1.50;;;;;;;15.49;83.36;94145.34;5083382;28;20035;-73
2023/06/17 05:21:08;;;;;;;3.42;1.23;;;;;;;15.38;83.72;94150.97;5069206;28;20037;-73
2023/06/17 05:23:33;;;;;;;4.57;1.38;;;;;;;15.23;84.34;94148.25;5068195;28;20039;-73
2023/06/17 05:25:59;;;;;;;3.17;1.63;;;;;;;15.00;85.04;94124.66;5067140;28;20032;-73
2023/06/17 05:28:24;;;;;;;3.17;1.50;;;;;;;15.34;84.66;94158.31;5087360;28;20107;-73
2023/06/17 05:30:49;;;;;;;4.00;1.90;;;;;;;15.28;84.28;94137.28;5086876;28;20512;-73
2023/06/17 05:33:15;;;;;;;6.82;3.80;;;;;;;15.55;83.88;94165.56;5085354;28;20058;-73
2023/06/17 05:35:40;;;;;;;11.23;4.65;;;;;;;15.65;82.96;94160.91;5084669;28;20490;-73
2023/06/17 05:38:06;;;;;;;7.55;4.15;;;;;;;15.36;83.20;94138.03;5066504;28;20024;-73
2023/06/17 05:40:31;;;;;;;3.38;2.17;;;;;;;15.69;82.40;94158.00;5067074;28;20425;-73
2023/06/17 05:42:57;;;;;;;4.93;1.80;;;;;;;15.53;82.07;94154.47;5068239;28;20040;-73
2023/06/17 05:45:22;;;;;;;2.25;1.38;;;;;;;15.67;82.27;94146.84;5083879;28;20047;-73
2023/06/17 05:47:47;;;;;;;4.88;1.60;;;;;;;15.34;83.44;94131.34;5070675;28;20043;-73
2023/06/17 05:50:13;;;;;;;3.47;1.50;;;;;;;15.38;83.83;94159.63;5026750;28;1093801;-73
2023/06/17 05:52:38;;;;;;;3.25;1.77;;;;;;;15.59;83.34;94151.13;5082515;28;20035;-73
2023/06/17 05:55:04;;;;;;;3.15;1.40;;;;;;;15.69;82.99;94155.38;5068761;28;21104;-72
2023/06/17 05:57:30;;;;;;;2.20;1.20;;;;;;;15.44;82.98;94150.28;5087642;28;20028;-72
2023/06/17 05:59:55;;;;;;;2.63;1.33;;;;;;;15.70;82.13;94152.56;5067340;28;20426;-73
2023/06/17 06:02:21;;;;;;;2.90;1.30;;;;;;;15.76;82.31;94151.88;5084297;28;20028;-73
2023/06/17 06:04:47;;;;;;;1.85;1.00;;;;;;;15.72;79.79;94153.22;5065917;28;20706;-73
2023/06/17 06:07:12;;;;;;;1.73;0.90;;;;;;;15.47;80.85;94163.00;5066144;28;20422;-73
2023/06/17 06:09:38;;;;;;;1.95;1.15;;;;;;;15.36;82.56;94163.41;5067039;28;20036;-73
2023/06/17 06:12:04;;;;;;;3.42;1.33;;;;;;;15.48;83.06;94169.84;5087233;28;20047;-73
2023/06/17 06:14:29;;;;;;;1.08;0.70;;;;;;;15.57;81.88;94168.84;5070688;28;20028;-73
2023/06/17 06:16:55;;;;;;;1.20;0.80;;;;;;;15.44;82.08;94167.78;5068250;28;20040;-73
2023/06/17 06:19:20;;;;;;;1.67;0.90;;;;;;;15.02;83.47;94141.00;5063565;28;20025;-73
2023/06/17 06:21:46;;;;;;;1.20;0.70;;;;;;;15.57;81.97;94173.25;5086252;28;20422;-73
2023/06/17 06:24:11;;;;;;;3.22;0.90;;;;;;;15.34;83.03;94187.09;5061888;28;20032;-73
2023/06/17 06:26:37;;;;;;;1.77;0.90;;;;;;;15.40;82.00;94175.13;5046721;28;20024;-73
2023/06/17 06:29:02;;;;;;;2.22;0.95;;;;;;;15.38;82.54;94177.13;5086454;28;20417;-73
2023/06/17 06:31:27;;;;;;;1.92;1.10;;;;;;;15.35;82.68;94180.06;5085971;28;20494;-73
2023/06/17 06:33:53;;;;;;;1.60;0.98;;;;;;;15.62;82.18;94192.69;5085457;28;20425;-73
2023/06/17 06:36:18;;;;;;;2.28;0.80;;;;;;;15.47;83.25;94178.72;5065606;28;20419;-73
2023/06/17 06:38:44;;;;;;;1.40;0.82;;;;;;;15.60;83.10;94181.59;5068561;28;20028;-73
2023/06/17 06:41:09;;;;;;;2.42;0.82;;;;;;;15.95;82.22;94187.25;5068960;28;20051;-73
2023/06/17 06:43:35;;;;;;;2.13;1.10;;;;;;;15.57;83.83;94184.56;5048069;28;20464;-73
2023/06/17 06:46:00;;;;;;;1.35;0.80;;;;;;;15.79;83.47;94182.94;5085768;28;20031;-75
2023/06/17 06:48:25;;;;;;;1.45;0.80;;;;;;;15.71;82.58;94187.44;5055654;28;20039;-73
2023/06/17 06:50:51;;;;;;;2.35;1.00;;;;;;;15.62;82.51;94157.84;5085552;28;20135;-73
2023/06/17 06:53:19;;;;;;;1.92;0.90;;;;;;;15.71;82.88;94172.56;5069562;28;20032;-74
2023/06/17 06:55:44;;;;;;;2.50;1.13;;;;;;;15.94;82.89;94177.78;5078882;28;20050;-72
2023/06/17 06:58:09;;;;;;;1.23;0.70;;;;;;;16.12;81.49;94181.91;5079564;28;20029;-76
2023/06/17 07:00:35;;;;;;;1.50;0.80;;;;;;;15.97;81.67;94174.81;5085558;28;20035;-72
2023/06/17 07:03:01;;;;;;;1.23;0.80;;;;;;;16.06;82.13;94170.31;5085917;28;20126;-73
2023/06/17 07:05:28;;;;;;;2.70;0.82;;;;;;;15.98;81.29;94165.16;5082097;28;20456;-74
2023/06/17 07:07:53;;;;;;;1.80;0.90;;;;;;;16.00;82.12;94174.47;5064563;28;20035;-75
2023/06/17 07:10:19;;;;;;;1.23;0.80;;;;;;;16.06;81.47;94175.56;5088112;28;20036;-77
2023/06/17 07:12:44;;;;;;;1.17;0.60;;;;;;;16.01;81.06;94183.94;5081922;28;20044;-76
2023/06/17 07:15:10;;;;;;;1.55;0.77;;;;;;;15.82;82.93;94172.16;5068866;28;20040;-76
2023/06/17 07:17:35;;;;;;;3.10;0.80;;;;;;;15.84;83.14;94175.38;5077467;28;20031;-74
2023/06/17 07:20:02;;;;;;;1.10;0.68;;;;;;;15.69;82.96;94164.06;5090583;28;20032;-74
2023/06/17 07:22:28;;;;;;;2.60;0.82;;;;;;;15.93;82.53;94173.53;5068920;28;20396;-75
2023/06/17 07:24:53;;;;;;;3.35;0.80;;;;;;;16.03;82.44;94178.53;5083323;28;20042;-74
2023/06/17 07:27:19;;;;;;;1.10;0.80;;;;;;;16.01;83.14;94178.69;5082980;28;20479;-77
2023/06/17 07:29:44;;;;;;;4.93;4.25;;;;;;;16.03;82.55;94184.59;5074960;28;20620;-77
2023/06/17 07:32:10;;;;;;;4.80;1.60;;;;;;;16.14;82.45;94179.94;5058307;28;20127;-81
2023/06/17 07:34:35;;;;;;;4.03;1.10;;;;;;;16.14;82.72;94191.22;5068419;28;20438;-80
2023/06/17 07:37:01;;;;;;;2.08;1.10;;;;;;;15.99;82.72;94182.47;5045313;28;20032;-83
2023/06/17 07:39:26;;;;;;;1.67;0.90;;;;;;;16.25;81.90;94198.66;5083962;28;20050;-81
2023/06/17 07:41:52;;;;;;;2.42;0.77;;;;;;;16.05;81.32;94182.63;5082606;28;20032;-83
2023/06/17 07:44:17;;;;;;;1.52;1.00;;;;;;;16.25;81.05;94195.22;5064556;28;20033;-82
2023/06/17 07:46:43;;;;;;;1.20;0.80;;;;;;;15.95;80.93;94166.31;5082817;28;20090;-81
2023/06/17 07:49:08;;;;;;;1.65;0.90;;;;;;;16.23;81.19;94190.16;5050244;28;20060;-80
2023/06/17 07:51:34;;;;;;;1.70;0.98;;;;;;;16.26;81.47;94200.28;5076853;28;20093;-76
2023/06/17 07:53:59;;;;;;;1.50;0.90;;;;;;;16.36;79.38;94210.53;5082661;28;20040;-77
2023/06/17 07:56:27;;;;;;;1.67;0.90;;;;;;;16.19;80.74;94209.03;5068664;28;20495;-76
2023/06/17 07:58:52;;;;;;;12.90;1.40;;;;;;;16.11;81.99;94206.47;5080898;28;20484;-75
2023/06/17 08:01:18;;;;;;;1.73;1.08;;;;;;;16.35;84.08;94205.47;5070138;28;20064;-73
2023/06/17 08:03:43;;;;;;;1.42;0.93;;;;;;;16.19;83.33;94193.31;5073396;28;20476;-71
2023/06/17 08:06:13;;;;;;;1.52;0.90;;;;;;;16.31;81.48;94205.81;5073127;28;20025;-72
2023/06/17 08:08:39;;;;;;;2.30;0.80;;;;;;;16.38;81.52;94207.72;5072385;28;20024;-72
2023/06/17 08:11:04;;;;;;;2.90;1.00;;;;;;;16.31;82.72;94205.00;5076262;28;20040;-74
2023/06/17 08:13:30;;;;;;;2.95;1.00;;;;;;;16.53;82.26;94209.38;5082240;28;20024;-72
2023/06/17 08:15:55;;;;;;;1.27;0.90;;;;;;;16.51;82.27;94205.31;5069814;28;20044;-72
2023/06/17 08:18:21;;;;;;;2.85;1.25;;;;;;;16.40;82.73;94197.88;5068546;28;20025;-72
2023/06/17 08:20:46;;;;;;;2.00;0.75;;;;;;;16.52;81.84;94197.28;5088867;28;20078;-72
2023/06/17 08:23:12;;;;;;;1.20;0.70;;;;;;;16.68;80.50;94214.66;5068613;28;20041;-74
2023/06/17 08:25:39;;;;;;;1.50;0.70;;;;;;;16.69;78.78;94216.28;5083180;28;20039;-72
2023/06/17 08:28:04;;;;;;;2.70;0.80;;;;;;;16.41;79.75;94208.19;5054894;28;20035;-72
2023/06/17 08:30:29;;;;;;;1.25;0.77;;;;;;;16.36;81.09;94205.28;5089315;28;20028;-72
2023/06/17 08:32:57;;;;;;;1.35;0.90;;;;;;;16.51;81.15;94215.81;5079476;28;20501;-72
2023/06/17 08:35:22;;;;;;;2.67;1.00;;;;;;;16.40;81.17;94214.41;5057735;28;20033;-72
2023/06/17 08:37:47;;;;;;;1.67;1.02;;;;;;;16.35;81.52;94208.88;5084708;28;20043;-73
2023/06/17 08:40:14;;;;;;;2.00;0.82;;;;;;;16.57;81.77;94214.28;5075303;28;20032;-72
2023/06/17 08:42:39;;;;;;;4.70;0.88;;;;;;;16.68;81.30;94214.66;5075562;28;20030;-72
2023/06/17 08:45:06;;;;;;;2.90;0.85;;;;;;;16.50;80.93;94177.47;5059347;28;20028;-72
2023/06/17 08:47:31;;;;;;;1.30;0.80;;;;;;;16.64;81.51;94202.91;5070765;28;20107;-72
2023/06/17 08:49:57;;;;;;;1.15;0.80;;;;;;;16.49;82.02;94207.28;5053448;28;20117;-71
2023/06/17 08:52:22;;;;;;;2.30;0.90;;;;;;;16.67;81.54;94201.72;5038988;28;20025;-72
2023/06/17 08:54:48;;;;;;;1.30;0.80;;;;;;;16.81;81.92;94213.25;5055307;28;20028;-72
2023/06/17 08:57:13;;;;;;;1.50;1.05;;;;;;;16.59;81.50;94205.25;5071701;28;20398;-72
2023/06/17 08:59:40;;;;;;;1.33;0.88;;;;;;;16.08;81.64;94213.69;5055459;28;20536;-72
2023/06/17 09:02:05;;;;;;;1.58;0.80;;;;;;;16.15;80.05;94166.63;5038941;28;20031;-72
2023/06/17 09:04:31;;;;;;;1.70;0.90;;;;;;;16.23;80.74;94191.97;5039205;28;20021;-72
2023/06/17 09:06:56;;;;;;;2.35;1.10;;;;;;;16.21;81.19;94162.50;5070752;28;20094;-72
2023/06/17 09:09:22;;;;;;;2.20;1.20;;;;;;;16.36;81.86;94205.28;5055563;28;20032;-72
2023/06/17 09:11:48;;;;;;;1.98;0.82;;;;;;;16.11;81.95;94161.94;5055347;28;20415;-72
2023/06/17 09:14:16;;;;;;;1.60;1.00;;;;;;;16.59;81.30;94210.47;5072386;28;20060;-72
2023/06/17 09:16:41;;;;;;;1.50;0.93;;;;;;;16.19;81.44;94156.63;5055673;28;20575;-72
2023/06/17 09:19:10;;;;;;;1.70;1.00;;;;;;;16.37;81.46;94217.41;5055571;28;20034;-72
2023/06/17 09:21:36;;;;;;;2.95;1.08;;;;;;;16.08;81.34;94148.19;5055560;28;20020;-72
2023/06/17 09:24:03;;;;;;;2.35;1.40;;;;;;;16.42;81.86;94216.88;5073487;28;20024;-72
2023/06/17 09:26:30;;;;;;;2.15;1.20;;;;;;;16.53;81.75;94179.75;5055158;28;20025;-72
2023/06/17 09:29:02;;;;;;;2.10;1.20;;;;;;;16.50;81.92;94159.94;5055061;28;20040;-72
2023/06/17 09:31:28;;;;;;;1.90;1.10;;;;;;;16.88;82.00;94220.25;5071391;28;20414;-72
2023/06/17 09:33:54;;;;;;;2.80;1.10;;;;;;;16.73;78.78;94166.91;5054971;28;20086;-72
2023/06/17 09:36:20;;;;;;;2.00;1.25;;;;;;;16.86;80.84;94206.50;5054839;28;20036;-72
2023/06/17 09:38:45;;;;;;;1.67;1.30;;;;;;;16.81;81.70;94219.31;5038300;28;20058;-71
2023/06/17 09:41:14;;;;;;;2.35;1.42;;;;;;;17.02;82.63;94225.66;5054744;28;20034;-72
2023/06/17 09:43:41;;;;;;;2.30;1.60;;;;;;;17.22;81.74;94218.88;5036919;28;20040;-72
2023/06/17 09:46:06;;;;;;;2.28;1.50;;;;;;;17.10;81.12;94221.13;5038611;28;20038;-72
2023/06/17 09:48:33;;;;;;;2.67;1.98;;;;;;;17.15;80.13;94224.03;5071612;28;20418;-72
2023/06/17 09:50:59;;;;;;;2.88;1.52;;;;;;;16.90;81.40;94181.50;5038024;28;20056;-72
2023/06/17 09:53:27;;;;;;;3.60;1.75;;;;;;;17.30;81.35;94202.22;5054469;28;20039;-72
2023/06/17 09:55:56;;;;;;;3.22;1.95;;;;;;;17.12;81.26;94205.22;5038503;28;20036;-72
2023/06/17 09:58:22;;;;;;;2.17;1.55;;;;;;;17.31;82.73;94216.97;5071236;28;20028;-72
2023/06/17 10:00:51;;;;;;;3.38;1.38;;;;;;;17.25;79.77;94220.34;5054440;28;20039;-72
2023/06/17 10:03:17;;;;;;;2.35;1.50;;;;;;;17.41;79.60;94225.38;5038337;28;20024;-72
2023/06/17 10:05:43;;;;;;;2.47;1.60;;;;;;;17.17;79.61;94177.44;5054524;28;20047;-72
2023/06/17 10:08:09;;;;;;;2.13;1.60;;;;;;;17.26;79.96;94177.34;5037659;28;20029;-72
2023/06/17 10:10:34;;;;;;;2.45;1.48;;;;;;;17.22;79.30;94170.81;5054112;28;20032;-72
2023/06/17 10:12:59;;;;;;;1.90;1.30;;;;;;;17.68;78.86;94226.50;5053887;28;20056;-72
2023/06/17 10:15:25;;;;;;;2.20;1.50;;;;;;;17.39;78.71;94183.56;5054027;28;20033;-72
2023/06/17 10:17:53;;;;;;;2.38;1.50;;;;;;;17.72;79.27;94227.78;5054103;28;20406;-72
2023/06/17 10:20:19;;;;;;;3.58;1.60;;;;;;;17.74;78.34;94231.00;5037698;28;20502;-72
2023/06/17 10:22:44;;;;;;;2.78;1.50;;;;;;;17.62;77.83;94217.56;5037198;28;20078;-72
2023/06/17 10:25:13;;;;;;;2.35;1.50;;;;;;;17.30;78.90;94184.66;5070371;28;20032;-72
2023/06/17 10:27:39;;;;;;;1.98;1.40;;;;;;;17.57;78.14;94233.03;5037508;28;20078;-72
2023/06/17 10:30:24;;;;;;;1.80;1.48;;;;;;;17.61;77.69;94236.94;5037074;28;20028;-72
2023/06/17 10:33:02;;;;;;;2.38;1.60;;;;;;;17.52;78.96;94232.78;5053709;28;20028;-72
2023/06/17 10:35:46;;;;;;;2.58;1.15;;;;;;;17.43;78.17;94231.25;5054174;28;20035;-72
2023/06/17 10:38:28;;;;;;;2.50;1.85;;;;;;;17.35;79.77;94229.53;5070051;28;20048;-72
2023/06/17 10:40:53;;;;;;;2.30;1.48;;;;;;;17.43;78.92;94218.94;5036874;28;20066;-72
2023/06/17 10:43:19;;;;;;;2.97;1.23;;;;;;;17.29;79.14;94206.66;5053453;28;20051;-72
2023/06/17 10:45:52;;;;;;;1.60;1.10;;;;;;;16.90;78.80;94189.38;5053496;28;20089;-72
2023/06/17 10:48:30;;;;;;;2.88;1.13;;;;;;;17.02;78.96;94187.13;5053842;28;20486;-72
2023/06/17 10:50:57;;;;;;;1.88;1.20;;;;;;;16.85;78.57;94173.38;5053172;28;20044;-72
2023/06/17 10:53:46;;;;;;;1.88;1.10;;;;;;;17.33;78.47;94228.94;5036710;28;20040;-72
2023/06/17 10:56:11;;;;;;;2.70;1.20;;;;;;;16.81;79.97;94190.47;5070959;28;20027;-72
2023/06/17 10:58:47;;;;;;;1.40;1.00;;;;;;;17.12;79.76;94206.03;5053378;28;20066;-72
2023/06/17 11:01:13;;;;;;;1.95;1.20;;;;;;;17.10;80.94;94215.88;5037966;28;20020;-72
2023/06/17 11:03:38;;;;;;;2.22;1.30;;;;;;;17.04;80.87;94193.00;5053311;28;20036;-72
2023/06/17 11:06:05;;;;;;;2.10;1.30;;;;;;;17.15;79.37;94241.59;5053217;28;20430;-72
2023/06/17 11:08:31;;;;;;;2.20;1.38;;;;;;;17.02;79.94;94239.63;5069790;28;20028;-72
2023/06/17 11:11:06;;;;;;;2.65;1.27;;;;;;;17.04;79.23;94249.91;5036511;28;20028;-72
2023/06/17 11:13:32;;;;;;;2.97;1.42;;;;;;;16.67;78.67;94193.88;5069122;28;20037;-72
2023/06/17 11:15:57;;;;;;;2.08;1.48;;;;;;;16.66;79.32;94247.28;5051254;28;20517;-72
2023/06/17 11:18:23;;;;;;;2.63;1.80;;;;;;;16.68;79.88;94240.06;5068886;28;20036;-72
2023/06/17 11:20:48;;;;;;;3.92;1.80;;;;;;;16.63;78.88;94221.41;5034943;28;20395;-72
2023/06/17 11:23:13;;;;;;;2.45;1.67;;;;;;;16.93;78.91;94253.78;5052051;28;20029;-72
2023/06/17 11:25:40;;;;;;;2.35;1.95;;;;;;;16.77;79.67;94239.03;5051461;28;20032;-72
2023/06/17 11:28:05;;;;;;;4.03;2.40;;;;;;;16.54;79.43;94200.53;5064632;28;20476;-71
2023/06/17 11:30:31;;;;;;;3.75;2.35;;;;;;;16.88;80.15;94256.13;5059094;28;20029;-71